Terminal Aerodrome Forecast
Issued by NWS

Home | Current Version | Previous Version | Text Only | Print | Product List | Glossary On
Versions: 1 2 3 4 5 6 7 8 9 10 11 12 13 14 15 16
171
FTUS46 KMTR 192334
TAFSTS
TAF
KSTS 192334Z 2000/2024 16010KT 3SM -RA BR BKN015 OVC025
      TEMPO 2000/2004 2SM RA BR BKN007 OVC015
     FM200400 16012G18KT 2SM RA BR OVC007
     FM201500 16010KT 1SM -RA BR OVC010=

USA.gov is the U.S. government's official web portal to all federal, state and local government web resources and services.